Time;durP1;ratioP1;P1;durP2;ratioP2;P2;SDS_P1;SDS_P2;PMS_P1;PMS_P2;Temp;Humidity;BMP_temperature;BMP_pressure;BME280_temperature;BME280_humidity;BME280_pressure;Samples;Min_cycle;Max_cycle;Signal;HPM_P1;HPM_P2
2021/06/18 00:01:51;;;;;;;1.52;1.52;;;;;;;;;;5009590;28;20042;-58
2021/06/18 00:04:21;;;;;;;1.73;1.13;;;;;;;;;;5010838;28;20033;-58
2021/06/18 00:06:52;;;;;;;1.92;1.83;;;;;;;;;;5009637;28;20049;-59
2021/06/18 00:09:21;;;;;;;1.95;1.85;;;;;;;;;;5003295;28;20050;-59
2021/06/18 00:11:52;;;;;;;2.35;2.25;;;;;;;;;;5001389;28;20074;-57
2021/06/18 00:14:20;;;;;;;2.85;2.30;;;;;;;;;;5007375;28;20042;-59
2021/06/18 00:16:51;;;;;;;2.28;2.08;;;;;;;;;;5010630;28;20797;-57
2021/06/18 00:19:21;;;;;;;2.55;2.13;;;;;;;;;;5011148;28;20038;-59
2021/06/18 00:21:53;;;;;;;6.38;2.45;;;;;;;;;;5010082;28;20105;-59
2021/06/18 00:24:25;;;;;;;2.05;1.92;;;;;;;;;;5013483;28;20045;-59
2021/06/18 00:26:57;;;;;;;2.55;2.38;;;;;;;;;;5009410;28;20060;-58
2021/06/18 00:29:29;;;;;;;1.55;1.55;;;;;;;;;;5010486;28;20042;-59
2021/06/18 00:32:06;;;;;;;2.08;1.90;;;;;;;;;;5011147;28;20061;-57
2021/06/18 00:34:44;;;;;;;2.33;2.22;;;;;;;;;;5010108;28;20030;-59
2021/06/18 00:37:15;;;;;;;2.35;1.98;;;;;;;;;;5004884;28;20470;-59
2021/06/18 00:39:53;;;;;;;1.83;1.73;;;;;;;;;;5009483;28;20536;-56
2021/06/18 00:42:24;;;;;;;2.00;1.65;;;;;;;;;;5037883;28;20049;-56
2021/06/18 00:44:55;;;;;;;2.08;1.98;;;;;;;;;;5009638;28;20045;-59
2021/06/18 00:47:25;;;;;;;2.03;2.03;;;;;;;;;;5008049;28;20041;-59
2021/06/18 00:49:56;;;;;;;2.08;1.92;;;;;;;;;;5009410;28;20046;-59
2021/06/18 00:52:29;;;;;;;2.15;2.05;;;;;;;;;;5023882;28;20532;-59
2021/06/18 00:55:01;;;;;;;2.00;1.85;;;;;;;;;;5007637;28;20674;-58
2021/06/18 00:57:42;;;;;;;1.95;1.85;;;;;;;;;;4964509;28;20054;-58
2021/06/18 01:00:14;;;;;;;2.63;2.38;;;;;;;;;;5011463;28;20065;-58
2021/06/18 01:02:47;;;;;;;1.63;1.52;;;;;;;;;;5011636;28;20037;-59
2021/06/18 01:05:20;;;;;;;2.08;1.90;;;;;;;;;;5009842;28;20125;-58
2021/06/18 01:07:59;;;;;;;2.25;2.10;;;;;;;;;;5010998;28;20044;-58
2021/06/18 01:10:32;;;;;;;1.75;1.75;;;;;;;;;;5002310;28;20584;-58
2021/06/18 01:13:08;;;;;;;2.17;1.80;;;;;;;;;;5023208;28;20073;-59
2021/06/18 01:15:45;;;;;;;1.85;1.70;;;;;;;;;;5011663;28;20050;-59
2021/06/18 01:18:17;;;;;;;2.65;2.45;;;;;;;;;;5007576;28;20552;-59
2021/06/18 01:20:52;;;;;;;4.40;2.17;;;;;;;;;;5007288;28;20080;-59
2021/06/18 01:23:33;;;;;;;2.50;2.17;;;;;;;;;;4990059;28;20061;-59
2021/06/18 01:26:11;;;;;;;2.78;1.65;;;;;;;;;;5009239;28;20069;-59
2021/06/18 01:28:53;;;;;;;6.47;1.90;;;;;;;;;;5010756;28;20042;-59
2021/06/18 01:31:28;;;;;;;2.25;1.60;;;;;;;;;;5007961;28;20057;-59
2021/06/18 01:34:05;;;;;;;1.80;1.70;;;;;;;;;;5024033;28;20514;-59
2021/06/18 01:36:36;;;;;;;3.08;1.65;;;;;;;;;;5007204;28;20041;-59
2021/06/18 01:39:06;;;;;;;2.30;2.20;;;;;;;;;;5007812;28;20033;-58
2021/06/18 01:41:34;;;;;;;2.05;1.88;;;;;;;;;;5010406;28;20129;-59
2021/06/18 01:44:06;;;;;;;3.00;2.20;;;;;;;;;;5007016;28;20475;-60
2021/06/18 01:46:35;;;;;;;2.53;2.42;;;;;;;;;;5008371;28;20792;-59
2021/06/18 01:49:10;;;;;;;2.05;1.40;;;;;;;;;;5010463;28;20520;-60
2021/06/18 01:51:42;;;;;;;2.85;2.75;;;;;;;;;;5006942;28;20034;-59
2021/06/18 01:54:26;;;;;;;1.80;1.70;;;;;;;;;;4974726;28;20558;-59
2021/06/18 01:57:01;;;;;;;1.80;1.67;;;;;;;;;;5022978;28;20049;-59
2021/06/18 01:59:36;;;;;;;2.17;2.08;;;;;;;;;;5008003;28;20896;-59
2021/06/18 02:02:09;;;;;;;1.83;1.83;;;;;;;;;;5007531;28;20427;-59
2021/06/18 02:04:43;;;;;;;2.22;2.08;;;;;;;;;;4992687;28;20062;-59
2021/06/18 02:07:16;;;;;;;2.25;2.00;;;;;;;;;;5004252;28;20041;-57
2021/06/18 02:09:51;;;;;;;2.13;1.90;;;;;;;;;;5002963;28;20548;-58
2021/06/18 02:12:23;;;;;;;3.13;2.22;;;;;;;;;;5007027;28;20052;-59
2021/06/18 02:14:56;;;;;;;2.85;2.55;;;;;;;;;;5007641;28;20030;-60
2021/06/18 02:17:30;;;;;;;2.55;2.45;;;;;;;;;;5016975;28;20112;-59
2021/06/18 02:20:00;;;;;;;1.90;1.80;;;;;;;;;;5008399;28;20068;-59
2021/06/18 02:22:35;;;;;;;1.83;1.83;;;;;;;;;;5000568;28;20053;-57
2021/06/18 02:25:08;;;;;;;4.82;2.63;;;;;;;;;;5015988;28;20037;-59
2021/06/18 02:27:38;;;;;;;2.20;2.00;;;;;;;;;;5012903;28;20042;-59
2021/06/18 02:30:15;;;;;;;2.67;2.58;;;;;;;;;;5008359;28;20038;-59
2021/06/18 02:32:51;;;;;;;2.45;2.35;;;;;;;;;;5007155;28;20129;-60
2021/06/18 02:35:21;;;;;;;3.05;2.95;;;;;;;;;;5006553;28;20131;-59
2021/06/18 02:37:55;;;;;;;3.28;2.33;;;;;;;;;;5002976;28;20101;-60
2021/06/18 02:40:27;;;;;;;2.80;2.65;;;;;;;;;;5006112;28;20029;-59
2021/06/18 02:42:59;;;;;;;3.22;2.22;;;;;;;;;;5015273;28;20034;-59
2021/06/18 02:45:29;;;;;;;2.90;2.80;;;;;;;;;;5005406;28;20050;-59
2021/06/18 02:48:13;;;;;;;2.72;2.50;;;;;;;;;;5008050;28;20472;-60
2021/06/18 02:50:56;;;;;;;3.67;2.58;;;;;;;;;;5009084;28;20042;-58
2021/06/18 02:53:29;;;;;;;2.53;2.38;;;;;;;;;;5006183;28;20060;-59
2021/06/18 02:56:07;;;;;;;2.75;2.05;;;;;;;;;;5003353;28;20434;-60
2021/06/18 02:58:47;;;;;;;3.10;2.90;;;;;;;;;;5009815;28;20060;-60
2021/06/18 03:01:26;;;;;;;2.20;2.10;;;;;;;;;;4974234;28;20129;-61
2021/06/18 03:04:01;;;;;;;1.80;1.80;;;;;;;;;;5016284;28;20053;-59
2021/06/18 03:06:36;;;;;;;2.70;2.60;;;;;;;;;;5006644;28;20050;-59
2021/06/18 03:09:11;;;;;;;2.97;2.30;;;;;;;;;;5005959;28;20041;-60
2021/06/18 03:11:46;;;;;;;2.78;2.67;;;;;;;;;;5004030;28;20529;-61
2021/06/18 03:14:18;;;;;;;1.90;1.80;;;;;;;;;;5016444;28;20564;-60
2021/06/18 03:16:57;;;;;;;2.35;2.25;;;;;;;;;;5014183;28;20034;-60
2021/06/18 03:19:37;;;;;;;2.75;2.55;;;;;;;;;;5009723;28;20041;-60
2021/06/18 03:22:11;;;;;;;2.60;2.50;;;;;;;;;;5008795;28;20045;-61
2021/06/18 03:24:47;;;;;;;3.33;2.78;;;;;;;;;;5005437;28;20050;-59
2021/06/18 03:27:20;;;;;;;4.47;2.47;;;;;;;;;;5012409;28;20050;-61
2021/06/18 03:29:53;;;;;;;4.10;3.35;;;;;;;;;;5011509;28;20132;-63
2021/06/18 03:32:25;;;;;;;1.83;1.73;;;;;;;;;;5011608;28;20113;-61
2021/06/18 03:35:01;;;;;;;2.47;2.35;;;;;;;;;;5012976;28;20038;-60
2021/06/18 03:37:34;;;;;;;3.42;2.70;;;;;;;;;;5005150;28;20043;-61
2021/06/18 03:40:05;;;;;;;2.42;2.33;;;;;;;;;;5006912;28;20045;-60
2021/06/18 03:42:37;;;;;;;2.03;2.03;;;;;;;;;;5018384;28;20065;-60
2021/06/18 03:45:09;;;;;;;4.50;2.72;;;;;;;;;;5018264;28;20501;-60
2021/06/18 03:47:45;;;;;;;3.28;2.92;;;;;;;;;;5009475;28;20552;-61
2021/06/18 03:50:22;;;;;;;4.95;3.33;;;;;;;;;;5010504;28;20038;-61
2021/06/18 03:52:54;;;;;;;3.05;2.95;;;;;;;;;;5001671;28;20037;-61
2021/06/18 03:55:29;;;;;;;2.70;2.60;;;;;;;;;;5024701;28;20041;-61
2021/06/18 03:58:00;;;;;;;2.92;2.80;;;;;;;;;;5012570;28;20478;-60
2021/06/18 04:00:42;;;;;;;2.72;2.53;;;;;;;;;;5009134;28;20569;-61
2021/06/18 04:03:14;;;;;;;3.03;2.33;;;;;;;;;;5012698;28;20084;-61
2021/06/18 04:05:48;;;;;;;2.50;2.30;;;;;;;;;;5005762;28;20478;-61
2021/06/18 04:08:24;;;;;;;5.13;2.58;;;;;;;;;;4983238;28;20058;-61
2021/06/18 04:10:59;;;;;;;2.70;2.55;;;;;;;;;;5023801;28;20050;-62
2021/06/18 04:13:33;;;;;;;2.22;2.22;;;;;;;;;;5011216;28;20597;-62
2021/06/18 04:16:04;;;;;;;2.45;2.25;;;;;;;;;;5011092;28;20497;-60
2021/06/18 04:18:42;;;;;;;2.58;2.47;;;;;;;;;;5010912;28;20412;-61
2021/06/18 04:21:17;;;;;;;2.95;2.53;;;;;;;;;;5004932;28;20081;-61
2021/06/18 04:23:47;;;;;;;2.42;2.33;;;;;;;;;;5022019;28;20037;-61
2021/06/18 04:26:20;;;;;;;2.58;2.42;;;;;;;;;;5020183;28;20081;-61
2021/06/18 04:28:53;;;;;;;3.38;3.17;;;;;;;;;;5011902;28;20544;-61
2021/06/18 04:31:26;;;;;;;3.20;3.10;;;;;;;;;;5011830;28;20744;-61
2021/06/18 04:34:00;;;;;;;3.22;3.13;;;;;;;;;;5011362;28;20052;-61
2021/06/18 04:36:36;;;;;;;5.07;2.58;;;;;;;;;;5010665;28;20367;-62
2021/06/18 04:39:07;;;;;;;2.92;2.83;;;;;;;;;;5006181;28;20038;-61
2021/06/18 04:41:43;;;;;;;3.60;3.30;;;;;;;;;;5017275;28;20050;-62
2021/06/18 04:44:16;;;;;;;4.25;2.88;;;;;;;;;;5012166;28;20075;-61
2021/06/18 04:46:52;;;;;;;3.17;2.88;;;;;;;;;;4993467;28;20046;-62
2021/06/18 04:49:23;;;;;;;3.28;3.17;;;;;;;;;;5009607;28;20054;-62
2021/06/18 04:51:57;;;;;;;3.95;3.75;;;;;;;;;;5008375;28;20049;-60
2021/06/18 04:54:27;;;;;;;3.00;2.80;;;;;;;;;;4990245;28;20170;-61
2021/06/18 04:56:57;;;;;;;2.73;2.60;;;;;;;;;;5012015;28;20092;-61
2021/06/18 04:59:25;;;;;;;2.45;2.35;;;;;;;;;;5008531;28;20038;-62
2021/06/18 05:01:56;;;;;;;2.80;2.22;;;;;;;;;;5011158;28;20049;-61
2021/06/18 05:04:24;;;;;;;1.80;1.70;;;;;;;;;;5010683;28;20037;-61
2021/06/18 05:06:57;;;;;;;;;;;;;;;;;;5009334;28;20044;-61
2021/06/18 05:09:33;;;;;;;2.85;2.50;;;;;;;;;;5010945;28;19925;-60
2021/06/18 05:12:06;;;;;;;2.85;2.75;;;;;;;;;;5008962;28;20450;-61
2021/06/18 05:14:39;;;;;;;3.08;2.88;;;;;;;;;;5008025;28;20109;-61
2021/06/18 05:17:11;;;;;;;3.05;2.85;;;;;;;;;;5011920;28;20038;-61
2021/06/18 05:19:40;;;;;;;;;;;;;;;;;;5008006;28;20081;-61
2021/06/18 05:22:10;;;;;;;3.55;3.25;;;;;;;;;;5009891;28;19925;-61
2021/06/18 05:24:41;;;;;;;3.50;3.20;;;;;;;;;;5010110;28;20038;-61
2021/06/18 05:27:17;;;;;;;3.00;2.90;;;;;;;;;;4990783;28;20553;-59
2021/06/18 05:29:57;;;;;;;2.70;2.60;;;;;;;;;;4973599;28;20076;-61
2021/06/18 05:32:36;;;;;;;2.83;2.72;;;;;;;;;;5007663;28;20045;-61
2021/06/18 05:35:14;;;;;;;2.97;2.15;;;;;;;;;;5004649;28;20042;-61
2021/06/18 05:37:45;;;;;;;4.00;2.53;;;;;;;;;;5009849;28;20046;-60
2021/06/18 05:40:17;;;;;;;4.00;2.63;;;;;;;;;;5005476;28;20036;-61
2021/06/18 05:42:48;;;;;;;2.83;2.72;;;;;;;;;;5009487;28;20475;-60
2021/06/18 05:45:23;;;;;;;3.35;3.15;;;;;;;;;;5007491;28;20038;-60
2021/06/18 05:48:00;;;;;;;3.90;2.42;;;;;;;;;;4995866;28;20498;-61
2021/06/18 05:50:29;;;;;;;4.07;2.72;;;;;;;;;;5011455;28;20124;-60
2021/06/18 05:53:02;;;;;;;2.92;2.83;;;;;;;;;;5008094;28;20046;-58
2021/06/18 05:55:32;;;;;;;2.65;2.30;;;;;;;;;;5009055;28;20034;-59
2021/06/18 05:58:01;;;;;;;2.58;2.47;;;;;;;;;;5012200;28;20137;-60
2021/06/18 06:00:31;;;;;;;3.25;3.05;;;;;;;;;;5007802;28;20117;-59
2021/06/18 06:03:14;;;;;;;3.55;3.13;;;;;;;;;;5004158;28;20076;-60
2021/06/18 06:05:50;;;;;;;2.88;2.78;;;;;;;;;;5010335;28;20070;-60
2021/06/18 06:08:29;;;;;;;2.58;2.47;;;;;;;;;;5007937;28;20038;-59
2021/06/18 06:11:07;;;;;;;2.65;2.47;;;;;;;;;;5009549;28;20081;-60
2021/06/18 06:13:45;;;;;;;3.22;3.03;;;;;;;;;;5010968;28;20045;-59
2021/06/18 06:16:21;;;;;;;3.13;2.83;;;;;;;;;;5002996;28;20130;-60
2021/06/18 06:18:59;;;;;;;2.38;2.28;;;;;;;;;;4997145;28;20050;-58
2021/06/18 06:21:36;;;;;;;2.45;2.25;;;;;;;;;;5009797;28;20205;-59
2021/06/18 06:24:13;;;;;;;6.20;4.15;;;;;;;;;;5009035;28;20046;-59
2021/06/18 06:26:50;;;;;;;3.63;2.53;;;;;;;;;;5010429;28;20042;-59
2021/06/18 06:29:27;;;;;;;4.07;3.85;;;;;;;;;;5007822;28;20485;-59
2021/06/18 06:32:06;;;;;;;10.10;3.58;;;;;;;;;;4999329;28;20116;-59
2021/06/18 06:34:43;;;;;;;2.78;2.63;;;;;;;;;;5009896;28;20058;-59
2021/06/18 06:37:20;;;;;;;2.92;2.70;;;;;;;;;;5008011;28;20121;-58
2021/06/18 06:39:57;;;;;;;2.78;2.67;;;;;;;;;;5007757;28;20038;-59
2021/06/18 06:42:34;;;;;;;3.13;2.15;;;;;;;;;;5011436;28;20060;-58
2021/06/18 06:45:11;;;;;;;2.60;2.50;;;;;;;;;;5005330;28;20437;-59
2021/06/18 06:47:51;;;;;;;2.88;2.70;;;;;;;;;;4996691;28;20080;-58
2021/06/18 06:50:28;;;;;;;4.13;2.35;;;;;;;;;;5010201;28;20042;-58
2021/06/18 06:53:07;;;;;;;2.15;2.13;;;;;;;;;;5008101;28;20045;-59
2021/06/18 06:55:44;;;;;;;3.50;2.35;;;;;;;;;;5006006;28;20062;-59
2021/06/18 06:58:20;;;;;;;2.10;1.85;;;;;;;;;;5010882;28;20042;-58
2021/06/18 07:00:58;;;;;;;2.40;2.20;;;;;;;;;;5006461;28;20041;-59
2021/06/18 07:03:35;;;;;;;2.22;2.00;;;;;;;;;;5002099;28;20049;-56
2021/06/18 07:06:11;;;;;;;13.70;3.45;;;;;;;;;;5010090;28;20045;-59
2021/06/18 07:08:48;;;;;;;4.03;1.75;;;;;;;;;;5006996;28;20445;-56
2021/06/18 07:11:28;;;;;;;2.85;2.08;;;;;;;;;;4989611;28;20158;-59
2021/06/18 07:14:05;;;;;;;3.95;1.60;;;;;;;;;;4990033;28;20486;-59
2021/06/18 07:16:41;;;;;;;2.47;2.25;;;;;;;;;;4986822;28;20432;-59
2021/06/18 07:19:19;;;;;;;5.18;2.65;;;;;;;;;;4992767;28;20046;-59
2021/06/18 07:21:56;;;;;;;2.10;1.85;;;;;;;;;;4988010;28;20041;-59
2021/06/18 07:24:33;;;;;;;4.13;1.95;;;;;;;;;;4986326;28;20042;-59
2021/06/18 07:27:10;;;;;;;1.85;1.35;;;;;;;;;;4989767;28;20050;-55
2021/06/18 07:29:47;;;;;;;6.90;1.40;;;;;;;;;;4987466;28;20057;-59
2021/06/18 07:32:27;;;;;;;2.65;1.60;;;;;;;;;;4986848;28;20058;-59
2021/06/18 07:35:04;;;;;;;1.75;1.20;;;;;;;;;;4990316;28;20061;-59
2021/06/18 07:37:40;;;;;;;1.38;1.27;;;;;;;;;;4987653;28;20051;-58
2021/06/18 07:40:11;;;;;;;4.40;1.73;;;;;;;;;;4988792;28;20459;-59
2021/06/18 07:42:47;;;;;;;4.45;1.10;;;;;;;;;;4989794;28;20133;-60
2021/06/18 07:45:14;;;;;;;2.40;1.75;;;;;;;;;;4985383;28;20519;-59
2021/06/18 07:47:42;;;;;;;9.70;2.10;;;;;;;;;;4980344;28;20047;-59
2021/06/18 07:50:12;;;;;;;1.77;1.25;;;;;;;;;;4983972;28;20376;-60
2021/06/18 07:52:40;;;;;;;5.57;1.63;;;;;;;;;;4976287;28;20038;-59
2021/06/18 07:55:10;;;;;;;1.35;1.25;;;;;;;;;;4991099;28;20050;-59
2021/06/18 07:57:39;;;;;;;4.43;1.40;;;;;;;;;;4988376;28;20042;-59
2021/06/18 08:00:07;;;;;;;2.95;1.00;;;;;;;;;;5000759;28;20092;-58
2021/06/18 08:02:34;;;;;;;3.63;1.00;;;;;;;;;;4988590;28;20070;-60
2021/06/18 08:05:00;;;;;;;1.85;1.67;;;;;;;;;;4980446;28;20035;-60
2021/06/18 08:07:27;;;;;;;4.65;1.30;;;;;;;;;;4991088;28;20108;-58
2021/06/18 08:09:54;;;;;;;2.55;1.40;;;;;;;;;;4996811;28;20096;-60
2021/06/18 08:12:21;;;;;;;2.28;0.90;;;;;;;;;;5011880;28;20043;-60
2021/06/18 08:14:49;;;;;;;4.40;1.30;;;;;;;;;;5012905;28;20132;-57
2021/06/18 08:17:16;;;;;;;1.10;1.10;;;;;;;;;;5010970;28;20452;-58
2021/06/18 08:19:43;;;;;;;2.25;1.00;;;;;;;;;;5012178;28;20061;-60
2021/06/18 08:22:10;;;;;;;3.75;1.20;;;;;;;;;;5012128;28;20038;-60
2021/06/18 08:24:37;;;;;;;1.52;1.10;;;;;;;;;;5011445;28;20053;-57
2021/06/18 08:27:04;;;;;;;1.10;1.00;;;;;;;;;;5012214;28;20149;-60
2021/06/18 08:29:31;;;;;;;2.75;0.90;;;;;;;;;;5010465;28;20033;-60
2021/06/18 08:31:58;;;;;;;2.20;0.93;;;;;;;;;;5012672;28;20052;-59
2021/06/18 08:34:25;;;;;;;1.73;1.00;;;;;;;;;;5010998;28;20046;-60
2021/06/18 08:36:52;;;;;;;0.98;0.90;;;;;;;;;;5011307;28;20057;-59
2021/06/18 08:39:20;;;;;;;3.60;1.27;;;;;;;;;;5012337;28;20080;-60
2021/06/18 08:41:47;;;;;;;0.90;0.90;;;;;;;;;;5009183;28;20041;-61
2021/06/18 08:44:17;;;;;;;2.25;0.90;;;;;;;;;;5027605;28;20041;-60
2021/06/18 08:46:44;;;;;;;3.45;0.90;;;;;;;;;;5011666;28;20053;-61
2021/06/18 08:49:11;;;;;;;1.77;1.00;;;;;;;;;;5009863;28;20563;-60
2021/06/18 08:51:38;;;;;;;2.22;0.80;;;;;;;;;;5000463;28;20073;-61
2021/06/18 08:54:05;;;;;;;1.50;0.80;;;;;;;;;;5006279;28;20042;-60
2021/06/18 08:56:31;;;;;;;0.90;0.70;;;;;;;;;;5009067;28;20039;-60
2021/06/18 08:58:58;;;;;;;0.88;0.85;;;;;;;;;;5012652;28;20141;-60
2021/06/18 09:01:25;;;;;;;1.33;0.80;;;;;;;;;;5010506;28;20034;-61
2021/06/18 09:03:54;;;;;;;1.15;0.80;;;;;;;;;;5003344;28;20034;-63
2021/06/18 09:06:21;;;;;;;0.70;0.70;;;;;;;;;;5006185;28;20045;-59
2021/06/18 09:09:06;;;;;;;3.22;0.80;;;;;;;;;;5009605;28;20510;-60
2021/06/18 09:11:52;;;;;;;0.60;0.60;;;;;;;;;;5010417;28;20137;-60
2021/06/18 09:14:20;;;;;;;0.80;0.80;;;;;;;;;;5008170;28;20062;-60
2021/06/18 09:17:05;;;;;;;0.60;0.60;;;;;;;;;;5003039;28;20126;-59
2021/06/18 09:19:33;;;;;;;1.77;0.70;;;;;;;;;;5011061;28;20117;-60
2021/06/18 09:22:02;;;;;;;3.25;0.70;;;;;;;;;;5010884;28;20038;-60
2021/06/18 09:24:30;;;;;;;1.02;0.77;;;;;;;;;;5011518;28;20493;-59
2021/06/18 09:26:58;;;;;;;0.73;0.73;;;;;;;;;;5008589;28;20038;-61
2021/06/18 09:29:25;;;;;;;0.70;0.70;;;;;;;;;;5008789;28;20100;-60
2021/06/18 09:31:52;;;;;;;0.70;0.70;;;;;;;;;;5012555;28;20046;-61
2021/06/18 09:37:42;;;;;;;0.82;0.80;;;;;;;;;;4936680;29;20055;-60
2021/06/18 09:40:16;;;;;;;1.65;0.93;;;;;;;;;;4944609;29;20056;-59
2021/06/18 09:42:54;;;;;;;0.60;0.60;;;;;;;;;;4942856;29;20043;-61
2021/06/18 09:45:22;;;;;;;1.05;0.80;;;;;;;;;;4947642;28;20118;-61
2021/06/18 09:47:49;;;;;;;0.80;0.80;;;;;;;;;;4946144;28;20535;-57
2021/06/18 09:50:25;;;;;;;1.85;0.80;;;;;;;;;;4942089;28;20054;-60
2021/06/18 09:53:11;;;;;;;1.00;0.88;;;;;;;;;;4933460;29;20496;-60
2021/06/18 09:55:38;;;;;;;1.58;0.80;;;;;;;;;;4939561;28;20670;-59
2021/06/18 09:58:05;;;;;;;3.75;1.05;;;;;;;;;;4938395;29;20043;-60
2021/06/18 10:00:32;;;;;;;0.70;0.70;;;;;;;;;;4948337;29;20141;-61
2021/06/18 10:02:59;;;;;;;1.55;0.60;;;;;;;;;;4944712;29;20075;-61
2021/06/18 10:05:28;;;;;;;3.17;0.65;;;;;;;;;;4934295;29;20044;-60
2021/06/18 10:07:55;;;;;;;1.85;0.60;;;;;;;;;;4937467;28;20074;-59
2021/06/18 10:10:23;;;;;;;1.17;0.70;;;;;;;;;;4937816;28;20087;-60
2021/06/18 10:12:51;;;;;;;3.17;0.68;;;;;;;;;;4935763;28;20134;-60
2021/06/18 10:15:20;;;;;;;1.05;0.60;;;;;;;;;;5007047;28;20041;-61
2021/06/18 10:17:47;;;;;;;0.60;0.60;;;;;;;;;;5007982;28;20760;-61
2021/06/18 10:20:21;;;;;;;0.60;0.60;;;;;;;;;;5004547;28;20041;-61
2021/06/18 10:23:10;;;;;;;0.90;0.60;;;;;;;;;;5008030;28;20061;-59
2021/06/18 10:25:38;;;;;;;1.20;0.73;;;;;;;;;;5005694;28;20062;-60
2021/06/18 10:28:11;;;;;;;2.78;0.57;;;;;;;;;;5009501;28;20041;-60
2021/06/18 10:30:52;;;;;;;1.40;0.60;;;;;;;;;;5006442;28;20107;-61
2021/06/18 10:33:28;;;;;;;1.70;0.68;;;;;;;;;;5008508;28;20042;-61
2021/06/18 10:38:25;;;;;;;1.15;0.60;;;;;;;;;;5007780;28;20034;-60
2021/06/18 10:40:52;;;;;;;1.48;0.70;;;;;;;;;;5012077;28;20091;-60
2021/06/18 10:43:19;;;;;;;1.95;0.60;;;;;;;;;;5007451;28;20064;-61
2021/06/18 10:46:15;;;;;;;1.65;0.82;;;;;;;;;;5004860;28;20037;-60
2021/06/18 10:48:51;;;;;;;0.75;0.70;;;;;;;;;;5001458;28;20054;-60
2021/06/18 10:51:30;;;;;;;1.85;0.63;;;;;;;;;;5003817;28;20038;-60
2021/06/18 10:54:02;;;;;;;1.23;0.60;;;;;;;;;;4992040;28;20050;-61
2021/06/18 10:56:44;;;;;;;0.50;0.50;;;;;;;;;;5009147;28;20493;-61
2021/06/18 10:59:20;;;;;;;1.63;0.70;;;;;;;;;;5008246;28;20093;-60
2021/06/18 11:01:47;;;;;;;0.68;0.68;;;;;;;;;;5008754;28;20100;-60
2021/06/18 11:04:14;;;;;;;0.60;0.60;;;;;;;;;;5013258;28;20568;-61
2021/06/18 11:06:47;;;;;;;1.15;0.60;;;;;;;;;;5007486;28;20121;-60
2021/06/18 11:09:32;;;;;;;0.60;0.60;;;;;;;;;;5009719;28;20132;-60
2021/06/18 11:12:19;;;;;;;1.42;0.60;;;;;;;;;;5007486;28;20497;-60
2021/06/18 11:14:46;;;;;;;2.25;1.02;;;;;;;;;;4997993;28;20505;-60
2021/06/18 11:17:32;;;;;;;3.88;0.60;;;;;;;;;;5007386;28;20348;-61
2021/06/18 11:19:58;;;;;;;3.40;0.60;;;;;;;;;;5004660;28;20042;-60
2021/06/18 11:22:55;;;;;;;0.60;0.60;;;;;;;;;;4993971;28;20061;-61
2021/06/18 11:25:40;;;;;;;2.05;0.60;;;;;;;;;;5007649;28;20136;-60
2021/06/18 11:28:19;;;;;;;3.60;0.60;;;;;;;;;;5008018;28;20045;-60
2021/06/18 11:30:49;;;;;;;0.80;0.68;;;;;;;;;;5006722;28;20060;-63
2021/06/18 11:33:36;;;;;;;2.13;0.60;;;;;;;;;;5010193;28;20042;-61
2021/06/18 11:36:04;;;;;;;1.30;1.00;;;;;;;;;;5000058;28;20522;-61
2021/06/18 11:38:31;;;;;;;1.00;1.00;;;;;;;;;;5006960;28;20093;-60
2021/06/18 11:40:59;;;;;;;0.60;0.60;;;;;;;;;;5010489;28;20125;-59
2021/06/18 11:43:27;;;;;;;1.65;0.60;;;;;;;;;;5010484;28;20045;-59
2021/06/18 11:45:54;;;;;;;0.95;0.70;;;;;;;;;;5011751;28;20029;-61
2021/06/18 11:48:21;;;;;;;0.63;0.63;;;;;;;;;;5010462;28;20045;-60
2021/06/18 11:50:48;;;;;;;1.40;0.50;;;;;;;;;;5008245;28;20060;-60
2021/06/18 11:53:16;;;;;;;1.38;0.60;;;;;;;;;;5004513;28;20371;-60
2021/06/18 11:55:43;;;;;;;0.50;0.50;;;;;;;;;;5004380;28;20036;-60
2021/06/18 11:58:29;;;;;;;0.98;0.50;;;;;;;;;;5011314;28;20431;-60
2021/06/18 12:00:56;;;;;;;0.60;0.60;;;;;;;;;;5006929;28;20088;-60
2021/06/18 12:03:29;;;;;;;2.78;0.60;;;;;;;;;;5008572;28;20038;-60
2021/06/18 12:05:56;;;;;;;2.30;0.60;;;;;;;;;;5012058;28;20081;-60
2021/06/18 12:08:23;;;;;;;1.63;0.60;;;;;;;;;;5008866;28;20042;-60
2021/06/18 12:10:50;;;;;;;1.20;0.75;;;;;;;;;;5011889;28;20513;-60
2021/06/18 12:13:16;;;;;;;1.35;0.60;;;;;;;;;;5010329;28;20041;-60
2021/06/18 12:15:43;;;;;;;2.38;0.70;;;;;;;;;;5012429;28;20137;-61
2021/06/18 12:18:10;;;;;;;0.60;0.60;;;;;;;;;;5002634;28;20073;-61
2021/06/18 12:20:42;;;;;;;2.35;0.60;;;;;;;;;;5009228;28;20049;-60
2021/06/18 12:23:14;;;;;;;0.60;0.60;;;;;;;;;;5009281;28;20104;-60
2021/06/18 12:25:41;;;;;;;0.60;0.60;;;;;;;;;;5006710;28;20038;-60
2021/06/18 12:28:09;;;;;;;0.75;0.68;;;;;;;;;;5006502;28;20046;-59
2021/06/18 12:30:37;;;;;;;1.15;0.60;;;;;;;;;;5006422;28;20544;-60
2021/06/18 12:33:04;;;;;;;2.70;0.60;;;;;;;;;;5013537;28;20056;-60
2021/06/18 12:35:39;;;;;;;2.38;1.00;;;;;;;;;;5008827;28;20072;-60
2021/06/18 12:38:07;;;;;;;0.60;0.60;;;;;;;;;;5007202;28;20418;-60
2021/06/18 12:40:34;;;;;;;0.93;0.60;;;;;;;;;;5009323;28;20125;-60
2021/06/18 12:43:09;;;;;;;3.47;0.60;;;;;;;;;;5009340;28;20065;-60
2021/06/18 12:45:42;;;;;;;0.60;0.60;;;;;;;;;;5008059;28;20038;-60
2021/06/18 12:48:15;;;;;;;0.68;0.60;;;;;;;;;;5007123;28;20049;-58
2021/06/18 12:50:45;;;;;;;0.70;0.70;;;;;;;;;;5000557;28;20046;-60
2021/06/18 12:53:12;;;;;;;0.68;0.60;;;;;;;;;;5009577;28;20383;-60
2021/06/18 12:55:41;;;;;;;1.95;0.60;;;;;;;;;;5010419;28;20070;-60
2021/06/18 12:58:14;;;;;;;1.83;0.70;;;;;;;;;;5006454;28;20065;-60
2021/06/18 13:00:50;;;;;;;0.70;0.70;;;;;;;;;;5002818;28;20041;-61
2021/06/18 13:03:48;;;;;;;2.88;0.70;;;;;;;;;;5014292;28;20044;-60
2021/06/18 13:06:15;;;;;;;1.65;0.70;;;;;;;;;;5009092;28;20429;-60
2021/06/18 13:08:45;;;;;;;1.40;0.60;;;;;;;;;;5008284;28;20129;-60
2021/06/18 13:11:21;;;;;;;0.85;0.60;;;;;;;;;;5004288;28;20060;-60
2021/06/18 13:13:47;;;;;;;1.35;0.70;;;;;;;;;;5005806;28;20057;-60
2021/06/18 13:16:16;;;;;;;0.82;0.65;;;;;;;;;;5007304;28;20137;-60
2021/06/18 13:18:54;;;;;;;2.38;0.70;;;;;;;;;;5007272;28;20492;-60
2021/06/18 13:21:22;;;;;;;1.88;0.70;;;;;;;;;;5009547;28;20041;-60
2021/06/18 13:23:49;;;;;;;0.63;0.60;;;;;;;;;;5008766;28;20038;-60
2021/06/18 13:26:16;;;;;;;2.47;0.60;;;;;;;;;;5009017;28;20042;-60
2021/06/18 13:28:48;;;;;;;2.28;0.77;;;;;;;;;;5009020;28;20125;-60
2021/06/18 13:31:20;;;;;;;0.60;0.60;;;;;;;;;;5003017;28;20121;-60
2021/06/18 13:33:52;;;;;;;0.60;0.60;;;;;;;;;;5003535;28;20050;-61
2021/06/18 13:36:26;;;;;;;2.08;0.63;;;;;;;;;;5000771;28;20442;-60
2021/06/18 13:38:53;;;;;;;1.33;0.70;;;;;;;;;;5001989;28;20088;-61
2021/06/18 13:41:31;;;;;;;0.70;0.70;;;;;;;;;;5008825;28;20100;-60
2021/06/18 13:43:58;;;;;;;1.08;0.70;;;;;;;;;;5006543;28;20042;-60
2021/06/18 13:46:24;;;;;;;1.08;0.70;;;;;;;;;;5008348;28;20065;-59
2021/06/18 13:48:51;;;;;;;2.75;0.70;;;;;;;;;;5008537;28;20125;-61
2021/06/18 13:51:18;;;;;;;2.10;0.70;;;;;;;;;;5009863;28;20092;-60
2021/06/18 13:53:45;;;;;;;1.15;0.60;;;;;;;;;;5008580;28;20065;-60
2021/06/18 13:56:11;;;;;;;2.97;0.80;;;;;;;;;;5023139;28;20065;-60
2021/06/18 13:58:38;;;;;;;1.35;0.60;;;;;;;;;;5007529;28;20091;-61
2021/06/18 14:01:05;;;;;;;3.05;0.60;;;;;;;;;;5010614;28;20133;-60
2021/06/18 14:03:33;;;;;;;3.67;0.73;;;;;;;;;;5007069;28;20073;-60
2021/06/18 14:06:00;;;;;;;0.70;0.70;;;;;;;;;;5008446;28;20038;-61
2021/06/18 14:08:27;;;;;;;3.13;0.70;;;;;;;;;;5009398;28;20069;-60
2021/06/18 14:10:54;;;;;;;3.67;0.95;;;;;;;;;;5020173;28;20111;-60
2021/06/18 14:13:21;;;;;;;0.70;0.70;;;;;;;;;;5010096;28;20125;-60
2021/06/18 14:15:51;;;;;;;0.85;0.85;;;;;;;;;;5009776;28;20050;-59
2021/06/18 14:18:18;;;;;;;3.20;0.60;;;;;;;;;;5011779;28;20030;-60
2021/06/18 14:20:46;;;;;;;3.00;0.77;;;;;;;;;;5017085;28;20034;-60
2021/06/18 14:23:17;;;;;;;2.83;0.70;;;;;;;;;;5000223;28;20045;-61
2021/06/18 14:25:45;;;;;;;3.80;0.70;;;;;;;;;;5010411;28;20042;-59
2021/06/18 14:28:12;;;;;;;3.03;0.70;;;;;;;;;;5010813;28;20069;-60
2021/06/18 14:30:39;;;;;;;1.42;0.75;;;;;;;;;;5006600;28;20052;-60
2021/06/18 14:33:08;;;;;;;1.10;0.70;;;;;;;;;;5007844;28;20096;-61
2021/06/18 14:35:35;;;;;;;1.67;0.65;;;;;;;;;;5007471;28;20423;-60
2021/06/18 14:38:01;;;;;;;1.00;0.90;;;;;;;;;;5006354;28;20108;-60
2021/06/18 14:40:28;;;;;;;1.33;0.60;;;;;;;;;;5006083;28;20062;-60
2021/06/18 14:42:55;;;;;;;0.70;0.70;;;;;;;;;;5004469;28;20045;-60
2021/06/18 14:45:22;;;;;;;3.03;0.65;;;;;;;;;;5012791;28;20124;-60
2021/06/18 14:47:48;;;;;;;1.02;0.70;;;;;;;;;;5006003;28;20502;-61
2021/06/18 14:50:16;;;;;;;0.60;0.60;;;;;;;;;;5009747;28;20060;-60
2021/06/18 14:52:43;;;;;;;0.75;0.75;;;;;;;;;;5006629;28;20042;-61
2021/06/18 14:55:10;;;;;;;1.63;0.70;;;;;;;;;;5007563;28;20042;-60
2021/06/18 14:57:37;;;;;;;2.88;0.70;;;;;;;;;;5008821;28;20033;-60
2021/06/18 15:00:05;;;;;;;2.50;1.00;;;;;;;;;;4998354;28;20045;-60
2021/06/18 15:02:32;;;;;;;4.28;0.90;;;;;;;;;;5013988;28;20127;-60
2021/06/18 15:04:58;;;;;;;3.33;0.63;;;;;;;;;;5008371;28;20544;-55
2021/06/18 15:07:25;;;;;;;2.00;0.70;;;;;;;;;;5006673;28;20103;-60
2021/06/18 15:09:52;;;;;;;1.50;0.95;;;;;;;;;;5006603;28;20220;-59
2021/06/18 15:12:19;;;;;;;3.33;0.60;;;;;;;;;;5007108;28;20046;-60
2021/06/18 15:14:49;;;;;;;1.88;0.80;;;;;;;;;;5019351;28;20092;-60
2021/06/18 15:17:15;;;;;;;1.90;0.60;;;;;;;;;;5015016;28;20125;-60
2021/06/18 15:19:42;;;;;;;1.27;0.60;;;;;;;;;;5009071;28;20045;-60